Time;durP1;ratioP1;P1;durP2;ratioP2;P2;SDS_P1;SDS_P2;PMS_P1;PMS_P2;Temp;Humidity;BMP_temperature;BMP_pressure;BME280_temperature;BME280_humidity;BME280_pressure;Samples;Min_cycle;Max_cycle;Signal;HPM_P1;HPM_P2
2021/09/08 00:00:27;;;;;;;17.97;12.87;;;;;;;15.58;94.43;96276.19;1024074;28;20110;-76
2021/09/08 00:00:57;;;;;;;18.27;13.17;;;;;;;15.58;94.31;96281.56;1032097;28;20033;-76
2021/09/08 00:01:28;;;;;;;19.57;12.77;;;;;;;15.56;93.73;96268.41;1031878;28;20026;-76
2021/09/08 00:01:58;;;;;;;19.17;12.93;;;;;;;15.58;93.26;96274.28;1021268;28;20131;-76
2021/09/08 00:02:29;;;;;;;18.73;13.00;;;;;;;15.56;93.83;96267.59;1032036;28;20124;-76
2021/09/08 00:03:00;;;;;;;20.40;13.53;;;;;;;15.57;94.07;96275.38;1032024;28;20574;-75
2021/09/08 00:03:30;;;;;;;16.52;13.02;;;;;;;15.52;93.81;96267.38;1032260;28;20026;-76
2021/09/08 00:04:00;;;;;;;16.77;13.37;;;;;;;15.58;93.82;96268.88;1036479;28;20055;-76
2021/09/08 00:04:31;;;;;;;21.20;13.97;;;;;;;15.62;93.23;96271.00;1044568;28;20482;-76
2021/09/08 00:05:03;;;;;;;19.33;13.27;;;;;;;15.60;94.15;96274.78;1040123;28;20032;-75
2021/09/08 00:05:33;;;;;;;19.50;12.90;;;;;;;15.59;92.95;96273.19;1036058;28;20018;-76
2021/09/08 00:06:04;;;;;;;19.20;12.70;;;;;;;15.64;92.58;96274.22;1032369;28;20030;-76
2021/09/08 00:06:34;;;;;;;16.80;13.00;;;;;;;15.65;93.19;96270.44;1032564;28;20093;-75
2021/09/08 00:07:04;;;;;;;19.20;12.67;;;;;;;15.64;93.03;96277.72;1040298;28;20029;-75
2021/09/08 00:07:35;;;;;;;17.07;13.17;;;;;;;15.64;92.91;96275.03;1040285;28;20029;-75
2021/09/08 00:08:05;;;;;;;17.43;13.27;;;;;;;15.68;92.87;96269.84;1031964;28;20057;-75
2021/09/08 00:08:36;;;;;;;15.80;11.97;;;;;;;15.69;93.54;96269.53;1032195;28;20086;-75
2021/09/08 00:09:06;;;;;;;18.70;12.50;;;;;;;15.71;93.03;96269.25;1036341;28;20454;-75
2021/09/08 00:09:37;;;;;;;19.47;13.30;;;;;;;15.69;93.14;96277.63;1044461;28;20497;-76
2021/09/08 00:10:08;;;;;;;17.90;13.10;;;;;;;15.68;92.47;96272.53;1048505;28;20020;-75
2021/09/08 00:10:38;;;;;;;15.85;13.00;;;;;;;15.57;92.34;96270.00;1044268;28;20048;-74
2021/09/08 00:11:09;;;;;;;19.70;13.67;;;;;;;15.62;92.14;96268.31;1040212;28;20029;-75
2021/09/08 00:11:39;;;;;;;19.00;12.90;;;;;;;15.60;92.52;96274.78;1040349;28;20025;-75
2021/09/08 00:12:10;;;;;;;16.17;12.80;;;;;;;15.57;92.29;96267.28;1037416;28;20035;-76
2021/09/08 00:12:40;;;;;;;19.80;13.07;;;;;;;15.59;91.90;96269.69;1040085;28;20056;-75
2021/09/08 00:13:10;;;;;;;20.07;12.77;;;;;;;15.62;92.16;96271.00;1040099;28;20048;-76
2021/09/08 00:13:41;;;;;;;16.87;12.93;;;;;;;15.57;92.50;96270.00;1036098;28;20064;-75
2021/09/08 00:14:11;;;;;;;21.40;12.53;;;;;;;15.60;92.75;96268.59;1040263;28;20069;-75
2021/09/08 00:14:42;;;;;;;19.17;14.03;;;;;;;15.63;92.60;96273.44;1036063;28;20021;-74
2021/09/08 00:15:12;;;;;;;19.70;13.63;;;;;;;15.53;92.27;96268.19;1032090;28;20089;-75
2021/09/08 00:15:43;;;;;;;17.40;12.97;;;;;;;15.56;92.50;96260.31;1032077;28;20025;-75
2021/09/08 00:16:14;;;;;;;19.33;12.87;;;;;;;15.58;92.81;96257.31;1032160;28;20043;-75
2021/09/08 00:16:44;;;;;;;18.90;13.27;;;;;;;15.61;91.51;96264.81;1036257;28;20045;-75
2021/09/08 00:17:15;;;;;;;19.83;13.37;;;;;;;15.57;92.22;96259.22;1040209;28;20264;-74
2021/09/08 00:17:45;;;;;;;18.57;13.17;;;;;;;15.53;92.71;96257.41;1040245;28;20029;-76
2021/09/08 00:18:15;;;;;;;17.70;12.93;;;;;;;15.54;92.01;96259.00;1036038;28;20026;-74
2021/09/08 00:18:46;;;;;;;17.93;12.90;;;;;;;15.56;92.67;96254.94;1036054;28;20073;-74
2021/09/08 00:19:16;;;;;;;17.93;12.50;;;;;;;15.63;91.96;96253.75;1036083;28;20414;-74
2021/09/08 00:19:47;;;;;;;15.83;12.20;;;;;;;15.56;92.66;96246.84;1040236;28;20427;-76
2021/09/08 00:20:17;;;;;;;17.23;13.33;;;;;;;15.55;92.24;96253.31;1040426;28;20041;-76
2021/09/08 00:20:47;;;;;;;19.07;13.80;;;;;;;15.60;92.23;96250.53;1040515;28;20046;-75
2021/09/08 00:21:18;;;;;;;19.63;13.17;;;;;;;15.55;93.85;96255.19;1044269;28;20025;-75
2021/09/08 00:21:48;;;;;;;16.93;13.20;;;;;;;15.50;93.57;96250.69;1044359;28;20025;-76
2021/09/08 00:22:19;;;;;;;18.30;13.87;;;;;;;15.51;93.19;96249.63;1039653;28;20033;-76
2021/09/08 00:22:49;;;;;;;18.53;12.80;;;;;;;15.55;93.09;96255.19;1040171;28;20033;-75
2021/09/08 00:23:19;;;;;;;18.87;12.73;;;;;;;15.58;93.54;96255.41;1040279;28;20387;-76
2021/09/08 00:23:50;;;;;;;20.40;13.60;;;;;;;15.59;93.73;96253.53;1044295;28;20445;-76
2021/09/08 00:24:20;;;;;;;18.40;12.97;;;;;;;15.58;94.31;96243.84;1044000;28;20025;-76
2021/09/08 00:24:51;;;;;;;17.37;12.40;;;;;;;15.55;93.65;96247.13;1044045;28;20025;-76
2021/09/08 00:25:21;;;;;;;15.70;12.37;;;;;;;15.57;92.82;96253.81;1044536;28;20029;-76
2021/09/08 00:25:51;;;;;;;16.40;12.93;;;;;;;15.60;92.06;96247.03;1044625;28;20032;-76
2021/09/08 00:26:24;;;;;;;23.00;13.77;;;;;;;15.56;93.32;96249.53;1040121;28;20025;-76
2021/09/08 00:26:54;;;;;;;23.02;13.52;;;;;;;15.59;93.53;96246.25;1040048;28;20068;-75
2021/09/08 00:27:24;;;;;;;19.40;12.90;;;;;;;15.58;93.48;96250.03;1040158;28;20032;-76
2021/09/08 00:27:55;;;;;;;20.57;13.40;;;;;;;15.58;94.11;96244.66;1040424;28;20076;-76
2021/09/08 00:28:25;;;;;;;25.30;13.67;;;;;;;15.59;93.95;96248.94;1044286;28;20036;-76
2021/09/08 00:28:56;;;;;;;20.97;12.93;;;;;;;15.63;93.79;96238.41;1044374;28;20029;-76
2021/09/08 00:29:26;;;;;;;19.43;12.67;;;;;;;15.65;93.42;96249.69;1044306;28;20017;-76
2021/09/08 00:29:56;;;;;;;25.30;13.67;;;;;;;15.59;94.20;96250.84;1044474;28;20025;-76
2021/09/08 00:30:27;;;;;;;25.47;13.47;;;;;;;15.57;94.39;96250.34;1044556;28;20466;-76
2021/09/08 00:30:57;;;;;;;21.93;13.27;;;;;;;15.58;93.94;96243.84;1044596;28;20488;-76
2021/09/08 00:31:28;;;;;;;20.17;13.43;;;;;;;15.59;94.27;96246.25;1044584;28;20346;-76
2021/09/08 00:31:58;;;;;;;21.20;13.27;;;;;;;15.58;94.33;96244.66;1044330;28;20470;-76
2021/09/08 00:32:29;;;;;;;22.30;13.97;;;;;;;15.52;94.44;96245.84;1044598;28;20021;-76
2021/09/08 00:32:59;;;;;;;23.80;13.60;;;;;;;15.49;94.50;96246.41;1044175;28;20039;-76
2021/09/08 00:33:30;;;;;;;19.73;13.20;;;;;;;15.49;94.11;96245.63;1044192;28;20044;-75
2021/09/08 00:34:00;;;;;;;19.20;13.43;;;;;;;15.50;95.11;96242.63;1040105;28;20521;-75
2021/09/08 00:34:31;;;;;;;19.97;12.93;;;;;;;15.52;95.36;96235.06;1040116;28;20091;-75
2021/09/08 00:35:02;;;;;;;19.53;12.63;;;;;;;15.55;94.90;96242.53;1044135;28;20016;-75
2021/09/08 00:35:33;;;;;;;18.48;12.75;;;;;;;15.59;94.12;96237.38;1040300;28;20108;-75
2021/09/08 00:36:03;;;;;;;18.17;13.40;;;;;;;15.60;93.87;96241.66;1044040;28;20028;-75
2021/09/08 00:36:34;;;;;;;19.03;13.03;;;;;;;15.55;94.43;96245.22;1044293;28;20381;-75
2021/09/08 00:37:04;;;;;;;20.70;13.57;;;;;;;15.54;94.66;96234.75;1044197;28;20131;-75
2021/09/08 00:37:38;;;;;;;19.17;13.40;;;;;;;15.50;95.11;96234.53;1044241;28;20472;-75
2021/09/08 00:38:10;;;;;;;20.45;14.25;;;;;;;15.48;95.32;96236.75;1035871;28;20053;-74
2021/09/08 00:38:40;;;;;;;19.90;13.73;;;;;;;15.46;95.63;96240.84;1031896;28;20534;-76
2021/09/08 00:39:11;;;;;;;20.37;13.70;;;;;;;15.41;96.32;96236.31;1027938;28;20077;-74
2021/09/08 00:39:41;;;;;;;18.40;13.17;;;;;;;15.38;96.88;96238.81;1028841;28;20430;-74
2021/09/08 00:40:12;;;;;;;16.40;12.70;;;;;;;15.37;97.28;96239.91;1040170;28;20047;-74
2021/09/08 00:40:42;;;;;;;19.83;14.10;;;;;;;15.37;97.30;96237.22;1043766;28;20137;-75
2021/09/08 00:41:12;;;;;;;19.13;13.47;;;;;;;15.33;97.09;96234.28;1043576;28;20048;-74
2021/09/08 00:41:43;;;;;;;17.90;14.00;;;;;;;15.27;98.19;96232.78;1040105;28;20021;-75
2021/09/08 00:42:15;;;;;;;19.63;13.63;;;;;;;15.22;98.42;96235.56;1039826;28;20413;-75
2021/09/08 00:42:46;;;;;;;17.33;13.90;;;;;;;15.19;98.95;96228.84;1032094;28;20054;-75
2021/09/08 00:43:16;;;;;;;16.93;13.50;;;;;;;15.17;99.22;96230.25;1032240;28;20026;-75
2021/09/08 00:43:46;;;;;;;24.43;13.83;;;;;;;15.12;100.00;96230.31;1036023;28;20037;-76
2021/09/08 00:44:17;;;;;;;16.20;12.93;;;;;;;15.12;100.00;96233.03;1032018;28;20527;-75
2021/09/08 00:44:47;;;;;;;17.60;13.33;;;;;;;15.12;100.00;96231.13;1040274;28;20486;-76
2021/09/08 00:45:18;;;;;;;22.43;14.20;;;;;;;15.09;100.00;96231.69;1035919;28;20030;-75
2021/09/08 00:45:52;;;;;;;20.50;13.93;;;;;;;15.08;100.00;96230.09;1032007;28;20018;-76
2021/09/08 00:46:22;;;;;;;17.48;13.15;;;;;;;15.05;100.00;96231.50;1031846;28;20030;-75
2021/09/08 00:46:53;;;;;;;18.83;14.33;;;;;;;15.01;100.00;96225.09;1033109;28;20030;-75
2021/09/08 00:47:23;;;;;;;18.90;14.10;;;;;;;14.98;100.00;96232.94;1036546;28;20018;-75
2021/09/08 00:47:54;;;;;;;18.73;12.90;;;;;;;14.94;100.00;96224.66;1040058;28;20017;-75
2021/09/08 00:48:24;;;;;;;19.17;13.47;;;;;;;14.89;100.00;96222.03;1039849;28;20025;-75
2021/09/08 00:48:55;;;;;;;20.17;14.77;;;;;;;14.90;100.00;96230.94;1040046;28;20018;-75
2021/09/08 00:49:25;;;;;;;20.50;13.40;;;;;;;14.87;100.00;96224.22;1044069;28;20048;-75
2021/09/08 00:49:55;;;;;;;19.67;14.10;;;;;;;14.83;100.00;96232.06;1044087;28;20043;-75
2021/09/08 00:50:26;;;;;;;20.83;15.13;;;;;;;14.80;100.00;96231.88;1044472;28;20025;-75
2021/09/08 00:50:57;;;;;;;22.87;14.10;;;;;;;14.79;100.00;96225.69;1039972;28;20014;-75
2021/09/08 00:51:27;;;;;;;20.10;14.87;;;;;;;14.78;100.00;96226.75;1036051;28;20017;-75
2021/09/08 00:52:02;;;;;;;17.47;13.33;;;;;;;14.76;100.00;96222.78;1035884;28;20026;-75
2021/09/08 00:52:32;;;;;;;21.20;14.07;;;;;;;14.74;100.00;96225.75;1036905;28;20022;-75
2021/09/08 00:53:02;;;;;;;19.23;13.80;;;;;;;14.72;100.00;96221.75;1035953;28;20033;-75
2021/09/08 00:53:33;;;;;;;23.27;13.97;;;;;;;14.71;100.00;96226.34;1036018;28;20021;-75
2021/09/08 00:54:11;;;;;;;20.03;14.57;;;;;;;14.69;100.00;96227.69;1035613;28;20092;-75
2021/09/08 00:54:48;;;;;;;18.08;14.27;;;;;;;14.64;100.00;96231.28;1033127;28;20387;-75
2021/09/08 00:55:20;;;;;;;21.70;14.30;;;;;;;14.64;100.00;96225.91;1035871;28;20503;-75
2021/09/08 00:55:51;;;;;;;19.60;14.85;;;;;;;14.65;100.00;96222.13;1038212;28;20029;-75
2021/09/08 00:56:22;;;;;;;19.67;14.60;;;;;;;14.67;100.00;96228.00;1039985;28;20021;-75
2021/09/08 00:56:53;;;;;;;20.05;13.75;;;;;;;14.69;100.00;96225.00;1036025;28;20026;-75
2021/09/08 00:57:24;;;;;;;19.92;14.73;;;;;;;14.72;100.00;96219.84;1035908;28;20022;-75
2021/09/08 00:57:54;;;;;;;18.07;13.73;;;;;;;14.73;100.00;96229.53;1031898;28;20026;-74
2021/09/08 00:58:25;;;;;;;16.57;13.37;;;;;;;14.72;100.00;96227.13;1031732;28;20026;-74
2021/09/08 00:58:55;;;;;;;18.50;13.47;;;;;;;14.71;100.00;96222.84;1031939;28;20029;-75
2021/09/08 00:59:25;;;;;;;18.47;13.77;;;;;;;14.71;100.00;96220.16;1027949;28;20106;-74
2021/09/08 00:59:56;;;;;;;19.10;13.50;;;;;;;14.72;100.00;96227.94;1032109;28;20038;-74
2021/09/08 01:00:26;;;;;;;19.07;13.50;;;;;;;14.75;100.00;96227.34;1039975;28;20021;-74
2021/09/08 01:00:57;;;;;;;18.93;13.43;;;;;;;14.78;100.00;96229.44;1036042;28;20636;-74
2021/09/08 01:01:27;;;;;;;19.07;13.70;;;;;;;14.75;100.00;96218.50;1039999;28;20059;-75
2021/09/08 01:02:00;;;;;;;19.70;13.43;;;;;;;14.73;100.00;96224.13;1039976;28;20029;-74
2021/09/08 01:02:30;;;;;;;18.77;14.07;;;;;;;14.80;100.00;96224.59;1041673;28;20021;-74
2021/09/08 01:03:01;;;;;;;16.67;12.93;;;;;;;14.84;100.00;96222.09;1044150;28;20603;-75
2021/09/08 01:03:31;;;;;;;19.20;13.50;;;;;;;14.88;98.37;96222.34;1040033;28;20069;-75
2021/09/08 01:04:02;;;;;;;18.33;12.90;;;;;;;14.90;96.23;96220.16;1031800;28;20050;-75
2021/09/08 01:04:32;;;;;;;17.43;12.63;;;;;;;14.94;93.38;96221.97;1031753;28;20057;-76
2021/09/08 01:05:03;;;;;;;17.77;12.20;;;;;;;14.94;92.00;96219.25;1032134;28;20022;-75
2021/09/08 01:05:34;;;;;;;17.57;12.43;;;;;;;14.98;96.06;96222.97;1036221;28;20093;-75
2021/09/08 01:06:04;;;;;;;16.87;13.47;;;;;;;14.99;95.99;96216.50;1039972;28;20490;-75
2021/09/08 01:06:34;;;;;;;18.57;13.03;;;;;;;14.99;96.17;96218.41;1035852;28;20030;-75
2021/09/08 01:07:05;;;;;;;20.07;12.30;;;;;;;14.99;95.92;96216.50;1031827;28;20030;-76
2021/09/08 01:07:36;;;;;;;19.67;13.03;;;;;;;15.05;93.13;96220.75;1035961;28;20100;-75
2021/09/08 01:08:06;;;;;;;20.00;12.70;;;;;;;15.01;90.52;96214.34;1040070;28;20025;-75
2021/09/08 01:08:37;;;;;;;18.03;12.77;;;;;;;15.06;90.01;96214.25;1035957;28;20495;-75
2021/09/08 01:09:07;;;;;;;15.83;12.07;;;;;;;15.06;89.66;96208.88;1035977;28;20037;-75
2021/09/08 01:09:38;;;;;;;17.43;13.00;;;;;;;15.13;89.07;96223.84;1031935;28;20019;-75
2021/09/08 01:10:08;;;;;;;16.97;12.57;;;;;;;15.14;88.60;96220.06;1028013;28;20022;-75
2021/09/08 01:10:39;;;;;;;17.50;12.50;;;;;;;15.14;88.21;96217.38;1031968;28;20025;-75
2021/09/08 01:11:09;;;;;;;17.10;12.17;;;;;;;15.13;87.68;96227.34;1027677;28;20050;-75
2021/09/08 01:11:40;;;;;;;17.60;12.47;;;;;;;15.17;87.87;96216.78;1027929;28;20038;-75
2021/09/08 01:12:10;;;;;;;17.00;11.97;;;;;;;15.21;88.16;96220.50;1027884;28;20030;-75
2021/09/08 01:12:41;;;;;;;18.63;12.30;;;;;;;15.21;87.79;96217.81;1031668;28;20029;-75
2021/09/08 01:13:11;;;;;;;18.73;12.73;;;;;;;15.22;87.47;96216.72;1031841;28;20034;-76
2021/09/08 01:13:42;;;;;;;16.67;11.93;;;;;;;15.25;88.10;96216.09;1031851;28;20455;-76
2021/09/08 01:14:12;;;;;;;20.17;13.23;;;;;;;15.26;87.52;96218.53;1035878;28;20030;-75
2021/09/08 01:14:42;;;;;;;18.33;12.93;;;;;;;15.28;87.30;96216.31;1031860;28;20018;-75
2021/09/08 01:15:13;;;;;;;18.53;12.83;;;;;;;15.29;86.96;96223.31;1035914;28;20022;-75
2021/09/08 01:16:01;;;;;;;19.97;13.17;;;;;;;15.22;86.97;96220.19;1039994;28;20017;-76
2021/09/08 01:16:32;;;;;;;17.02;12.25;;;;;;;15.18;86.53;96219.19;1030174;28;20026;-75
2021/09/08 01:17:02;;;;;;;16.13;11.80;;;;;;;15.17;86.08;96219.47;1031778;28;20034;-75
2021/09/08 01:17:33;;;;;;;16.63;12.03;;;;;;;15.19;86.47;96219.97;1031757;28;20031;-75
2021/09/08 01:18:03;;;;;;;16.67;12.07;;;;;;;15.19;86.38;96214.59;1032528;28;20029;-75
2021/09/08 01:18:34;;;;;;;16.60;11.67;;;;;;;15.17;87.28;96220.28;1035787;28;20030;-75
2021/09/08 01:19:04;;;;;;;20.20;12.60;;;;;;;15.21;86.84;96217.81;1027707;28;20034;-75
2021/09/08 01:19:35;;;;;;;19.90;12.63;;;;;;;15.25;87.58;96216.09;1027814;28;20026;-75
2021/09/08 01:20:06;;;;;;;18.35;12.52;;;;;;;15.22;86.36;96217.50;1031793;28;20027;-75
2021/09/08 01:20:37;;;;;;;17.60;12.60;;;;;;;15.20;86.65;96221.56;1031882;28;20054;-75
2021/09/08 01:21:07;;;;;;;15.83;12.03;;;;;;;15.19;86.33;96214.59;1035881;28;20026;-75
2021/09/08 01:21:37;;;;;;;19.00;11.90;;;;;;;15.22;86.27;96216.72;1035867;28;20022;-75
2021/09/08 01:22:08;;;;;;;15.03;11.93;;;;;;;15.26;85.84;96215.03;1027848;28;20019;-75
2021/09/08 01:22:51;;;;;;;18.70;12.53;;;;;;;15.23;86.16;96223.69;1037479;28;20037;-75
2021/09/08 01:23:21;;;;;;;17.95;12.32;;;;;;;15.18;86.35;96221.06;1039810;28;20061;-75
2021/09/08 01:23:52;;;;;;;15.43;11.73;;;;;;;15.22;85.89;96219.41;1041572;28;20478;-75
2021/09/08 01:24:23;;;;;;;16.80;12.70;;;;;;;15.24;85.65;96217.19;1047757;28;20012;-75
2021/09/08 01:24:53;;;;;;;16.20;12.07;;;;;;;15.21;85.56;96215.91;1044023;28;20488;-76
2021/09/08 01:25:25;;;;;;;18.97;12.40;;;;;;;15.22;86.08;96214.00;1043866;28;20064;-76
2021/09/08 01:25:55;;;;;;;18.45;12.15;;;;;;;15.25;85.73;96218.78;1035897;28;20018;-75
2021/09/08 01:26:26;;;;;;;15.13;11.50;;;;;;;15.24;85.88;96211.81;1031856;28;20026;-75
2021/09/08 01:26:58;;;;;;;15.73;12.03;;;;;;;15.24;85.99;96212.63;1027716;28;20034;-75
2021/09/08 01:27:28;;;;;;;14.05;11.25;;;;;;;15.26;85.77;96217.72;1028269;28;20461;-75
2021/09/08 01:27:58;;;;;;;15.40;11.80;;;;;;;15.27;85.31;96205.84;1035903;28;20025;-75
2021/09/08 01:28:29;;;;;;;17.23;12.10;;;;;;;15.27;85.41;96219.31;1036138;28;20010;-75
2021/09/08 01:28:59;;;;;;;23.57;12.43;;;;;;;15.27;84.95;96214.72;1040261;28;20021;-75
2021/09/08 01:29:30;;;;;;;18.87;12.27;;;;;;;15.26;86.07;96210.44;1039224;28;20017;-75
2021/09/08 01:30:00;;;;;;;19.47;12.87;;;;;;;15.23;86.56;96213.72;1031741;28;20026;-75
2021/09/08 01:30:31;;;;;;;19.53;13.70;;;;;;;15.24;86.66;96212.63;1027778;28;20030;-75
2021/09/08 01:31:01;;;;;;;18.10;11.93;;;;;;;15.28;85.70;96210.13;1027792;28;20036;-76
2021/09/08 01:31:32;;;;;;;18.20;12.30;;;;;;;15.30;85.32;96213.31;1031871;28;20100;-75
2021/09/08 01:32:03;;;;;;;16.83;12.60;;;;;;;15.27;84.83;96213.94;1031755;28;20033;-75
2021/09/08 01:32:34;;;;;;;18.10;13.15;;;;;;;15.30;84.64;96216.03;1024877;28;20106;-75
2021/09/08 01:33:13;;;;;;;19.90;12.87;;;;;;;15.25;85.05;96213.41;1028071;28;20424;-75
2021/09/08 01:33:43;;;;;;;18.73;12.48;;;;;;;15.20;84.99;96213.50;1030464;28;20518;-75
2021/09/08 01:34:14;;;;;;;20.43;13.03;;;;;;;15.19;84.63;96212.69;1033232;28;20077;-75
2021/09/08 01:34:44;;;;;;;19.03;12.40;;;;;;;15.25;84.94;96210.72;1035582;28;20053;-75
2021/09/08 01:35:18;;;;;;;17.17;12.50;;;;;;;15.24;85.10;96211.81;1035947;28;20038;-75
2021/09/08 01:35:48;;;;;;;17.10;12.98;;;;;;;15.22;84.86;96211.31;1040332;28;20120;-75
2021/09/08 01:36:19;;;;;;;18.37;12.80;;;;;;;15.21;84.52;96207.84;1043631;28;20529;-75
2021/09/08 01:36:49;;;;;;;18.73;13.13;;;;;;;15.19;84.82;96209.22;1035867;28;20049;-76
2021/09/08 01:37:20;;;;;;;17.87;12.57;;;;;;;15.22;85.59;96211.31;1035910;28;20041;-75
2021/09/08 01:37:50;;;;;;;16.60;12.37;;;;;;;15.21;85.44;96204.34;1031600;28;20026;-75
2021/09/08 01:38:21;;;;;;;16.97;12.23;;;;;;;15.19;85.58;96204.63;1031946;28;20431;-75
2021/09/08 01:38:51;;;;;;;17.50;13.23;;;;;;;15.16;85.82;96201.72;1035825;28;20459;-75
2021/09/08 01:39:22;;;;;;;18.00;12.37;;;;;;;15.12;85.81;96208.78;1031859;28;20026;-75
2021/09/08 01:39:53;;;;;;;18.52;12.90;;;;;;;15.13;85.85;96213.06;1035725;28;20034;-75
2021/09/08 01:40:23;;;;;;;16.30;11.57;;;;;;;15.14;84.69;96210.09;1031980;28;20034;-76
2021/09/08 01:40:53;;;;;;;17.10;12.93;;;;;;;15.15;84.83;96210.88;1038573;28;20025;-75
2021/09/08 01:41:24;;;;;;;18.70;12.97;;;;;;;15.15;85.16;96211.72;1044073;28;20109;-75
2021/09/08 01:41:54;;;;;;;15.07;11.93;;;;;;;15.18;84.82;96204.91;1043955;28;20025;-75
2021/09/08 01:42:25;;;;;;;18.37;12.83;;;;;;;15.16;85.13;96207.13;1044354;28;20036;-75
2021/09/08 01:42:56;;;;;;;17.17;11.77;;;;;;;15.14;84.78;96207.38;1044313;28;20017;-75
2021/09/08 01:43:26;;;;;;;16.15;12.38;;;;;;;15.12;85.05;96203.41;1035860;28;20510;-75
2021/09/08 01:43:57;;;;;;;17.03;12.23;;;;;;;15.13;84.97;96205.81;1035755;28;20022;-75
2021/09/08 01:44:27;;;;;;;19.07;12.97;;;;;;;15.14;85.34;96204.69;1035863;28;20037;-75
2021/09/08 01:44:57;;;;;;;20.33;12.73;;;;;;;15.15;85.19;96202.81;1031753;28;20060;-75
2021/09/08 01:45:28;;;;;;;17.27;13.20;;;;;;;15.11;85.07;96207.19;1039918;28;20025;-75
2021/09/08 01:45:58;;;;;;;15.23;12.37;;;;;;;15.13;85.51;96200.41;1035830;28;20026;-74
2021/09/08 01:46:29;;;;;;;15.53;11.60;;;;;;;15.12;84.64;96201.50;1039995;28;20018;-74
2021/09/08 01:46:59;;;;;;;16.17;12.57;;;;;;;15.08;84.85;96203.97;1044050;28;20028;-74
2021/09/08 01:47:30;;;;;;;17.07;12.93;;;;;;;15.03;85.28;96205.97;1044120;28;20478;-75
2021/09/08 01:48:00;;;;;;;16.43;12.53;;;;;;;15.07;84.87;96202.38;1043627;28;20151;-75
2021/09/08 01:48:31;;;;;;;17.17;12.23;;;;;;;15.02;85.53;96205.16;1039801;28;20026;-75
2021/09/08 01:49:01;;;;;;;18.60;12.77;;;;;;;15.05;85.59;96209.19;1039924;28;20053;-74
2021/09/08 01:49:31;;;;;;;16.37;12.60;;;;;;;15.07;85.43;96202.38;1035857;28;20025;-76
2021/09/08 01:50:02;;;;;;;19.27;13.10;;;;;;;14.94;86.14;96200.44;1039645;28;20029;-75
2021/09/08 01:50:32;;;;;;;18.20;13.07;;;;;;;15.01;85.52;96198.19;1043975;28;20394;-74
2021/09/08 01:51:03;;;;;;;20.73;12.80;;;;;;;15.01;85.50;96208.94;1035910;28;20462;-75
2021/09/08 01:51:33;;;;;;;15.70;11.97;;;;;;;14.96;85.81;96195.56;1035724;28;20030;-75
2021/09/08 01:52:03;;;;;;;19.13;12.90;;;;;;;14.99;86.02;96208.44;1035885;28;20361;-74
2021/09/08 01:52:34;;;;;;;18.47;12.70;;;;;;;15.01;85.91;96200.06;1036519;28;20495;-74
2021/09/08 01:53:05;;;;;;;15.63;11.85;;;;;;;15.03;85.60;96201.38;1036711;28;20022;-75
2021/09/08 01:53:35;;;;;;;16.40;11.97;;;;;;;15.05;85.97;96201.91;1040733;28;20052;-75
2021/09/08 01:54:06;;;;;;;17.00;12.60;;;;;;;15.07;85.47;96202.38;1040706;28;20029;-75
2021/09/08 01:54:36;;;;;;;19.23;12.87;;;;;;;15.00;85.60;96196.59;1032556;28;20027;-75
2021/09/08 01:55:07;;;;;;;18.50;12.53;;;;;;;15.01;85.88;96200.06;1036656;28;20022;-75
2021/09/08 01:55:38;;;;;;;17.30;12.02;;;;;;;15.03;85.03;96198.69;1032653;28;20533;-75
2021/09/08 01:56:09;;;;;;;18.27;12.60;;;;;;;15.04;85.21;96196.78;1033051;28;20027;-75
2021/09/08 01:56:40;;;;;;;16.77;12.40;;;;;;;15.02;85.61;96201.66;1036558;28;20167;-75
2021/09/08 01:57:10;;;;;;;15.90;12.60;;;;;;;15.04;85.95;96204.84;1036656;28;20014;-75
2021/09/08 01:57:40;;;;;;;21.00;14.20;;;;;;;15.02;85.13;96205.16;1036924;28;20073;-75
2021/09/08 01:58:11;;;;;;;18.87;12.80;;;;;;;14.98;85.89;96200.66;1036453;28;20036;-75
2021/09/08 01:58:41;;;;;;;17.83;12.80;;;;;;;15.04;85.76;96199.47;1040689;28;20405;-75
2021/09/08 01:59:12;;;;;;;16.10;11.50;;;;;;;15.04;85.35;96204.84;1028400;28;20022;-75
2021/09/08 01:59:42;;;;;;;20.20;13.80;;;;;;;15.01;85.66;96203.56;1028571;28;20041;-75
2021/09/08 02:00:15;;;;;;;18.03;13.10;;;;;;;15.02;85.60;96197.09;1032596;28;20030;-76
2021/09/08 02:00:45;;;;;;;17.80;13.07;;;;;;;15.01;85.45;96203.56;1028983;28;20050;-75
2021/09/08 02:01:15;;;;;;;17.93;12.67;;;;;;;15.04;85.12;96199.47;1030258;28;20479;-75
2021/09/08 02:01:46;;;;;;;17.90;12.87;;;;;;;15.05;86.11;96199.19;1032777;28;20026;-75
2021/09/08 02:02:16;;;;;;;19.97;13.30;;;;;;;15.05;86.65;96196.50;1032638;28;20026;-75
2021/09/08 02:02:47;;;;;;;17.23;11.60;;;;;;;15.06;86.49;96202.69;1036721;28;20014;-75
2021/09/08 02:03:17;;;;;;;18.93;13.20;;;;;;;15.04;86.67;96202.97;1044872;28;20021;-75
2021/09/08 02:03:47;;;;;;;17.53;12.60;;;;;;;15.07;86.99;96204.28;1044796;28;20021;-75
2021/09/08 02:04:18;;;;;;;17.03;12.60;;;;;;;15.09;86.94;96205.56;1044856;28;20025;-75
2021/09/08 02:04:48;;;;;;;16.27;12.27;;;;;;;15.09;87.65;96200.19;1044780;28;20021;-75
2021/09/08 02:05:19;;;;;;;16.90;11.97;;;;;;;15.07;88.08;96206.97;1044872;28;20473;-75
2021/09/08 02:05:49;;;;;;;16.47;12.47;;;;;;;15.04;88.49;96199.47;1036661;28;20022;-76
2021/09/08 02:06:24;;;;;;;19.83;13.40;;;;;;;15.05;88.62;96203.78;1040650;28;20018;-75
2021/09/08 02:06:55;;;;;;;17.67;12.95;;;;;;;14.99;89.20;96205.72;1040614;28;20109;-75
2021/09/08 02:07:25;;;;;;;18.37;13.23;;;;;;;14.97;88.71;96202.53;1038048;28;20032;-75
2021/09/08 02:07:56;;;;;;;20.07;13.07;;;;;;;14.88;89.15;96201.59;1040674;28;20028;-75
2021/09/08 02:08:26;;;;;;;17.17;12.57;;;;;;;14.94;89.87;96196.94;1040473;28;20374;-75
2021/09/08 02:08:58;;;;;;;16.27;12.20;;;;;;;14.95;89.89;96201.25;1040701;28;20018;-75
2021/09/08 02:09:28;;;;;;;20.20;13.88;;;;;;;14.96;89.37;96198.25;1044901;28;20043;-75
2021/09/08 02:09:59;;;;;;;22.60;13.43;;;;;;;14.97;89.21;96202.53;1044680;28;20025;-74
2021/09/08 02:10:29;;;;;;;17.60;12.47;;;;;;;14.99;89.18;96194.16;1036637;28;20022;-74
2021/09/08 02:11:00;;;;;;;18.17;12.53;;;;;;;14.95;89.06;96195.88;1036585;28;20072;-74
2021/09/08 02:11:30;;;;;;;17.23;12.23;;;;;;;14.95;89.78;96195.88;1032562;28;20026;-74
2021/09/08 02:12:01;;;;;;;18.47;13.10;;;;;;;14.96;89.05;96192.09;1036604;28;20030;-74
2021/09/08 02:12:31;;;;;;;21.83;12.63;;;;;;;14.95;89.49;96199.34;1040771;28;20041;-74
2021/09/08 02:13:04;;;;;;;20.23;13.33;;;;;;;14.95;89.17;96202.06;1040620;28;20025;-74
2021/09/08 02:13:34;;;;;;;16.35;12.45;;;;;;;14.96;89.40;96197.47;1040958;28;20034;-74
2021/09/08 02:14:04;;;;;;;18.90;13.30;;;;;;;14.88;89.51;96190.84;1040558;28;20036;-74
2021/09/08 02:14:35;;;;;;;18.43;13.07;;;;;;;14.87;89.26;96191.94;1036589;28;20033;-75
2021/09/08 02:15:05;;;;;;;19.93;13.63;;;;;;;14.87;89.80;96200.00;1036861;28;20026;-75
2021/09/08 02:15:36;;;;;;;20.37;13.60;;;;;;;14.87;90.12;96191.94;1036700;28;20414;-74
2021/09/08 02:16:06;;;;;;;21.70;13.47;;;;;;;14.87;90.24;96196.53;1040555;28;20017;-75
2021/09/08 02:16:37;;;;;;;26.20;12.53;;;;;;;14.84;88.47;96197.88;1040621;28;20026;-74
2021/09/08 02:17:07;;;;;;;19.10;14.17;;;;;;;14.84;87.84;96195.19;1040792;28;20125;-74
2021/09/08 02:17:38;;;;;;;16.53;12.80;;;;;;;14.86;88.32;96194.94;1032604;28;20069;-74
2021/09/08 02:18:08;;;;;;;18.17;13.37;;;;;;;14.83;88.46;96198.97;1027382;28;20034;-74
2021/09/08 02:18:39;;;;;;;18.70;13.90;;;;;;;14.82;89.52;96189.31;1024562;29;20031;-75
2021/09/08 02:19:09;;;;;;;15.87;12.70;;;;;;;14.81;90.22;96187.72;1024701;28;20027;-74
2021/09/08 02:19:39;;;;;;;15.90;12.23;;;;;;;14.78;89.74;96188.28;1036543;28;20034;-74
2021/09/08 02:20:10;;;;;;;16.40;12.67;;;;;;;14.73;88.26;96186.47;1040471;28;20057;-74
2021/09/08 02:20:40;;;;;;;19.67;13.93;;;;;;;14.77;87.78;96187.50;1040763;28;20048;-76
2021/09/08 02:21:11;;;;;;;16.70;12.43;;;;;;;14.77;87.74;96192.09;1044764;28;20033;-75
2021/09/08 02:21:41;;;;;;;19.50;12.93;;;;;;;14.76;87.33;96180.53;1044810;28;20033;-75